sensor_id;sensor_type;location;lat;lon;timestamp;temperature;humidity
19809;DHT22;48538;32.784;-96.802;2023-05-10T00:02:00;27.30;99.90
19809;DHT22;48538;32.784;-96.802;2023-05-10T00:04:27;27.20;99.90
19809;DHT22;48538;32.784;-96.802;2023-05-10T00:06:53;27.20;99.90
19809;DHT22;48538;32.784;-96.802;2023-05-10T00:09:20;27.20;99.90
19809;DHT22;48538;32.784;-96.802;2023-05-10T00:11:46;27.20;99.90
19809;DHT22;48538;32.784;-96.802;2023-05-10T00:14:13;27.10;99.90
19809;DHT22;48538;32.784;-96.802;2023-05-10T00:16:39;27.10;99.90
19809;DHT22;48538;32.784;-96.802;2023-05-10T00:19:05;27.00;99.90
19809;DHT22;48538;32.784;-96.802;2023-05-10T00:21:31;27.00;99.90
19809;DHT22;48538;32.784;-96.802;2023-05-10T00:23:59;27.00;99.90
19809;DHT22;48538;32.784;-96.802;2023-05-10T00:26:26;27.00;99.90
19809;DHT22;48538;32.784;-96.802;2023-05-10T00:28:52;26.90;99.90
19809;DHT22;48538;32.784;-96.802;2023-05-10T00:31:18;26.90;99.90
19809;DHT22;48538;32.784;-96.802;2023-05-10T00:33:45;26.80;99.90
19809;DHT22;48538;32.784;-96.802;2023-05-10T00:36:11;26.80;99.90
19809;DHT22;48538;32.784;-96.802;2023-05-10T00:38:37;26.70;99.90
19809;DHT22;48538;32.784;-96.802;2023-05-10T00:41:04;26.70;99.90
19809;DHT22;48538;32.784;-96.802;2023-05-10T00:43:30;26.70;99.90
19809;DHT22;48538;32.784;-96.802;2023-05-10T00:45:57;26.60;99.90
19809;DHT22;48538;32.784;-96.802;2023-05-10T00:48:23;26.60;99.90
19809;DHT22;48538;32.784;-96.802;2023-05-10T00:50:50;26.50;99.90
19809;DHT22;48538;32.784;-96.802;2023-05-10T00:53:16;26.50;99.90
19809;DHT22;48538;32.784;-96.802;2023-05-10T00:55:43;26.40;99.90
19809;DHT22;48538;32.784;-96.802;2023-05-10T00:58:09;26.30;99.90
19809;DHT22;48538;32.784;-96.802;2023-05-10T01:00:35;26.30;99.90
19809;DHT22;48538;32.784;-96.802;2023-05-10T01:03:03;26.30;99.90
19809;DHT22;48538;32.784;-96.802;2023-05-10T01:05:29;26.30;99.90
19809;DHT22;48538;32.784;-96.802;2023-05-10T01:07:56;26.30;99.90
19809;DHT22;48538;32.784;-96.802;2023-05-10T01:10:22;26.20;99.90
19809;DHT22;48538;32.784;-96.802;2023-05-10T01:12:49;26.20;99.90
19809;DHT22;48538;32.784;-96.802;2023-05-10T01:15:16;26.10;99.90
19809;DHT22;48538;32.784;-96.802;2023-05-10T01:17:44;26.10;99.90
19809;DHT22;48538;32.784;-96.802;2023-05-10T01:20:12;26.00;99.90
19809;DHT22;48538;32.784;-96.802;2023-05-10T01:23:00;25.90;99.90
19809;DHT22;48538;32.784;-96.802;2023-05-10T01:28:43;25.80;99.90
19809;DHT22;48538;32.784;-96.802;2023-05-10T01:34:21;25.70;99.90
19809;DHT22;48538;32.784;-96.802;2023-05-10T01:37:04;25.70;99.90
19809;DHT22;48538;32.784;-96.802;2023-05-10T01:43:02;25.60;99.90
19809;DHT22;48538;32.784;-96.802;2023-05-10T01:46:32;25.50;99.90
19809;DHT22;48538;32.784;-96.802;2023-05-10T01:48:56;25.50;99.90
19809;DHT22;48538;32.784;-96.802;2023-05-10T01:51:26;25.50;99.90
19809;DHT22;48538;32.784;-96.802;2023-05-10T01:54:00;25.50;99.90
19809;DHT22;48538;32.784;-96.802;2023-05-10T01:56:30;25.40;99.90
19809;DHT22;48538;32.784;-96.802;2023-05-10T01:58:59;25.40;99.90
19809;DHT22;48538;32.784;-96.802;2023-05-10T02:01:27;25.40;99.90
19809;DHT22;48538;32.784;-96.802;2023-05-10T02:03:55;25.40;99.90
19809;DHT22;48538;32.784;-96.802;2023-05-10T02:06:24;25.30;99.90
19809;DHT22;48538;32.784;-96.802;2023-05-10T02:08:51;25.30;99.90
19809;DHT22;48538;32.784;-96.802;2023-05-10T02:11:19;25.30;99.90
19809;DHT22;48538;32.784;-96.802;2023-05-10T02:13:49;25.30;99.90
19809;DHT22;48538;32.784;-96.802;2023-05-10T02:16:17;25.30;99.90
19809;DHT22;48538;32.784;-96.802;2023-05-10T02:18:45;25.30;99.90
19809;DHT22;48538;32.784;-96.802;2023-05-10T02:21:13;25.30;99.90
19809;DHT22;48538;32.784;-96.802;2023-05-10T02:23:43;25.20;99.90
19809;DHT22;48538;32.784;-96.802;2023-05-10T02:26:10;25.20;99.90
19809;DHT22;48538;32.784;-96.802;2023-05-10T02:28:38;25.20;99.90
19809;DHT22;48538;32.784;-96.802;2023-05-10T02:31:06;25.20;99.90
19809;DHT22;48538;32.784;-96.802;2023-05-10T02:33:34;25.20;99.90
19809;DHT22;48538;32.784;-96.802;2023-05-10T02:36:02;25.20;99.90
19809;DHT22;48538;32.784;-96.802;2023-05-10T02:38:30;25.20;99.90
19809;DHT22;48538;32.784;-96.802;2023-05-10T02:40:58;25.20;99.90
19809;DHT22;48538;32.784;-96.802;2023-05-10T02:43:26;25.10;99.90
19809;DHT22;48538;32.784;-96.802;2023-05-10T02:45:53;25.10;99.90
19809;DHT22;48538;32.784;-96.802;2023-05-10T02:48:19;25.10;99.90
19809;DHT22;48538;32.784;-96.802;2023-05-10T02:50:47;25.10;99.90
19809;DHT22;48538;32.784;-96.802;2023-05-10T02:53:26;25.10;99.90
19809;DHT22;48538;32.784;-96.802;2023-05-10T02:55:58;25.00;99.90
19809;DHT22;48538;32.784;-96.802;2023-05-10T02:58:26;25.00;99.90
19809;DHT22;48538;32.784;-96.802;2023-05-10T03:00:53;25.00;99.90
19809;DHT22;48538;32.784;-96.802;2023-05-10T03:03:19;25.00;99.90
19809;DHT22;48538;32.784;-96.802;2023-05-10T03:05:46;25.00;99.90
19809;DHT22;48538;32.784;-96.802;2023-05-10T03:08:13;24.90;99.90
19809;DHT22;48538;32.784;-96.802;2023-05-10T03:10:50;24.90;99.90
19809;DHT22;48538;32.784;-96.802;2023-05-10T03:16:27;24.90;99.90
19809;DHT22;48538;32.784;-96.802;2023-05-10T03:19:06;24.90;99.90
19809;DHT22;48538;32.784;-96.802;2023-05-10T03:21:33;24.80;99.90
19809;DHT22;48538;32.784;-96.802;2023-05-10T03:24:09;24.80;99.90
19809;DHT22;48538;32.784;-96.802;2023-05-10T03:26:38;24.80;99.90
19809;DHT22;48538;32.784;-96.802;2023-05-10T03:29:06;24.70;99.90
19809;DHT22;48538;32.784;-96.802;2023-05-10T03:31:34;24.70;99.90
19809;DHT22;48538;32.784;-96.802;2023-05-10T03:34:00;24.70;99.90
19809;DHT22;48538;32.784;-96.802;2023-05-10T03:36:27;24.70;99.90
19809;DHT22;48538;32.784;-96.802;2023-05-10T03:38:53;24.60;99.90
19809;DHT22;48538;32.784;-96.802;2023-05-10T03:41:19;24.60;99.90
19809;DHT22;48538;32.784;-96.802;2023-05-10T03:43:46;24.50;99.90
19809;DHT22;48538;32.784;-96.802;2023-05-10T03:46:12;24.60;99.90
19809;DHT22;48538;32.784;-96.802;2023-05-10T03:48:39;24.50;99.90
19809;DHT22;48538;32.784;-96.802;2023-05-10T03:51:05;24.50;99.90
19809;DHT22;48538;32.784;-96.802;2023-05-10T03:53:31;24.50;99.90
19809;DHT22;48538;32.784;-96.802;2023-05-10T03:55:57;24.40;99.90
19809;DHT22;48538;32.784;-96.802;2023-05-10T03:58:24;24.40;99.90
19809;DHT22;48538;32.784;-96.802;2023-05-10T04:00:51;24.40;99.90
19809;DHT22;48538;32.784;-96.802;2023-05-10T04:03:18;24.40;99.90
19809;DHT22;48538;32.784;-96.802;2023-05-10T04:05:44;24.40;99.90
19809;DHT22;48538;32.784;-96.802;2023-05-10T04:08:10;24.30;99.90
19809;DHT22;48538;32.784;-96.802;2023-05-10T04:10:37;24.30;99.90
19809;DHT22;48538;32.784;-96.802;2023-05-10T04:13:03;24.30;99.90
19809;DHT22;48538;32.784;-96.802;2023-05-10T04:15:29;24.20;99.90
19809;DHT22;48538;32.784;-96.802;2023-05-10T04:17:55;24.20;99.90
19809;DHT22;48538;32.784;-96.802;2023-05-10T04:20:22;24.20;99.90
19809;DHT22;48538;32.784;-96.802;2023-05-10T04:22:48;24.20;99.90
19809;DHT22;48538;32.784;-96.802;2023-05-10T04:25:14;24.20;99.90
19809;DHT22;48538;32.784;-96.802;2023-05-10T04:27:40;24.20;99.90
19809;DHT22;48538;32.784;-96.802;2023-05-10T04:30:07;24.20;99.90
19809;DHT22;48538;32.784;-96.802;2023-05-10T04:32:34;24.20;99.90
19809;DHT22;48538;32.784;-96.802;2023-05-10T04:35:00;24.10;99.90
19809;DHT22;48538;32.784;-96.802;2023-05-10T04:37:29;24.10;99.90
19809;DHT22;48538;32.784;-96.802;2023-05-10T04:39:55;24.10;99.90
19809;DHT22;48538;32.784;-96.802;2023-05-10T04:42:22;24.10;99.90
19809;DHT22;48538;32.784;-96.802;2023-05-10T04:44:48;24.10;99.90
19809;DHT22;48538;32.784;-96.802;2023-05-10T04:47:14;24.10;99.90
19809;DHT22;48538;32.784;-96.802;2023-05-10T04:49:42;24.00;99.90
19809;DHT22;48538;32.784;-96.802;2023-05-10T04:52:08;24.10;99.90
19809;DHT22;48538;32.784;-96.802;2023-05-10T04:54:34;24.10;99.90
19809;DHT22;48538;32.784;-96.802;2023-05-10T04:57:00;24.10;99.90
19809;DHT22;48538;32.784;-96.802;2023-05-10T04:59:27;24.10;99.90
19809;DHT22;48538;32.784;-96.802;2023-05-10T05:01:53;24.10;99.90
19809;DHT22;48538;32.784;-96.802;2023-05-10T05:04:19;24.00;99.90
19809;DHT22;48538;32.784;-96.802;2023-05-10T05:06:45;24.00;99.90
19809;DHT22;48538;32.784;-96.802;2023-05-10T05:09:12;24.00;99.90
19809;DHT22;48538;32.784;-96.802;2023-05-10T05:11:38;24.00;99.90
19809;DHT22;48538;32.784;-96.802;2023-05-10T05:14:05;24.00;99.90
19809;DHT22;48538;32.784;-96.802;2023-05-10T05:16:31;23.90;99.90
19809;DHT22;48538;32.784;-96.802;2023-05-10T05:18:58;23.90;99.90
19809;DHT22;48538;32.784;-96.802;2023-05-10T05:21:25;23.90;99.90
19809;DHT22;48538;32.784;-96.802;2023-05-10T05:23:52;23.90;99.90
19809;DHT22;48538;32.784;-96.802;2023-05-10T05:26:19;23.90;99.90
19809;DHT22;48538;32.784;-96.802;2023-05-10T05:28:45;23.90;99.90
19809;DHT22;48538;32.784;-96.802;2023-05-10T05:31:11;23.90;99.90
19809;DHT22;48538;32.784;-96.802;2023-05-10T05:33:38;23.90;99.90
19809;DHT22;48538;32.784;-96.802;2023-05-10T05:36:05;23.80;99.90
19809;DHT22;48538;32.784;-96.802;2023-05-10T05:38:32;23.80;99.90
19809;DHT22;48538;32.784;-96.802;2023-05-10T05:40:58;23.80;99.90
19809;DHT22;48538;32.784;-96.802;2023-05-10T05:43:24;23.80;99.90
19809;DHT22;48538;32.784;-96.802;2023-05-10T05:45:52;23.80;99.90
19809;DHT22;48538;32.784;-96.802;2023-05-10T05:48:19;23.80;99.90
19809;DHT22;48538;32.784;-96.802;2023-05-10T05:50:46;23.80;99.90
19809;DHT22;48538;32.784;-96.802;2023-05-10T05:53:12;23.80;99.90
19809;DHT22;48538;32.784;-96.802;2023-05-10T05:55:38;23.80;99.90
19809;DHT22;48538;32.784;-96.802;2023-05-10T05:58:04;23.70;99.90
19809;DHT22;48538;32.784;-96.802;2023-05-10T06:00:31;23.70;99.90
19809;DHT22;48538;32.784;-96.802;2023-05-10T06:02:57;23.70;99.90
19809;DHT22;48538;32.784;-96.802;2023-05-10T06:05:23;23.70;99.90
19809;DHT22;48538;32.784;-96.802;2023-05-10T06:07:50;23.70;99.90
19809;DHT22;48538;32.784;-96.802;2023-05-10T06:10:16;23.70;99.90
19809;DHT22;48538;32.784;-96.802;2023-05-10T06:12:42;23.70;99.90
19809;DHT22;48538;32.784;-96.802;2023-05-10T06:15:09;23.70;99.90
19809;DHT22;48538;32.784;-96.802;2023-05-10T06:17:36;23.70;99.90
19809;DHT22;48538;32.784;-96.802;2023-05-10T06:20:02;23.60;99.90
19809;DHT22;48538;32.784;-96.802;2023-05-10T06:22:29;23.60;99.90
19809;DHT22;48538;32.784;-96.802;2023-05-10T06:24:55;23.60;99.90
19809;DHT22;48538;32.784;-96.802;2023-05-10T06:27:21;23.60;99.90
19809;DHT22;48538;32.784;-96.802;2023-05-10T06:29:47;23.60;99.90
19809;DHT22;48538;32.784;-96.802;2023-05-10T06:32:14;23.50;99.90
19809;DHT22;48538;32.784;-96.802;2023-05-10T06:34:40;23.50;99.90
19809;DHT22;48538;32.784;-96.802;2023-05-10T06:37:06;23.50;99.90
19809;DHT22;48538;32.784;-96.802;2023-05-10T06:39:33;23.50;99.90
19809;DHT22;48538;32.784;-96.802;2023-05-10T06:41:59;23.50;99.90
19809;DHT22;48538;32.784;-96.802;2023-05-10T06:44:25;23.50;99.90
19809;DHT22;48538;32.784;-96.802;2023-05-10T06:46:51;23.50;99.90
19809;DHT22;48538;32.784;-96.802;2023-05-10T06:49:19;23.50;99.90
19809;DHT22;48538;32.784;-96.802;2023-05-10T06:51:45;23.50;99.90
19809;DHT22;48538;32.784;-96.802;2023-05-10T06:54:11;23.50;99.90
19809;DHT22;48538;32.784;-96.802;2023-05-10T06:56:38;23.40;99.90
19809;DHT22;48538;32.784;-96.802;2023-05-10T06:59:04;23.40;99.90
19809;DHT22;48538;32.784;-96.802;2023-05-10T07:01:30;23.40;99.90
19809;DHT22;48538;32.784;-96.802;2023-05-10T07:03:57;23.40;99.90
19809;DHT22;48538;32.784;-96.802;2023-05-10T07:06:23;23.40;99.90
19809;DHT22;48538;32.784;-96.802;2023-05-10T07:08:49;23.40;99.90
19809;DHT22;48538;32.784;-96.802;2023-05-10T07:11:16;23.40;99.90
19809;DHT22;48538;32.784;-96.802;2023-05-10T07:13:42;23.30;99.90
19809;DHT22;48538;32.784;-96.802;2023-05-10T07:16:10;23.40;99.90
19809;DHT22;48538;32.784;-96.802;2023-05-10T07:18:37;23.30;99.90
19809;DHT22;48538;32.784;-96.802;2023-05-10T07:21:03;23.30;99.90
19809;DHT22;48538;32.784;-96.802;2023-05-10T07:23:29;23.30;99.90
19809;DHT22;48538;32.784;-96.802;2023-05-10T07:25:56;23.30;99.90
19809;DHT22;48538;32.784;-96.802;2023-05-10T07:28:23;23.30;99.90
19809;DHT22;48538;32.784;-96.802;2023-05-10T07:30:52;23.30;99.90
19809;DHT22;48538;32.784;-96.802;2023-05-10T07:33:19;23.20;99.90
19809;DHT22;48538;32.784;-96.802;2023-05-10T07:35:45;23.20;99.90
19809;DHT22;48538;32.784;-96.802;2023-05-10T07:38:11;23.20;99.90
19809;DHT22;48538;32.784;-96.802;2023-05-10T07:40:39;23.10;99.90
19809;DHT22;48538;32.784;-96.802;2023-05-10T07:43:05;23.10;99.90
19809;DHT22;48538;32.784;-96.802;2023-05-10T07:45:31;23.10;99.90
19809;DHT22;48538;32.784;-96.802;2023-05-10T07:47:58;23.10;99.90
19809;DHT22;48538;32.784;-96.802;2023-05-10T07:50:24;23.10;99.90
19809;DHT22;48538;32.784;-96.802;2023-05-10T07:52:50;23.10;99.90
19809;DHT22;48538;32.784;-96.802;2023-05-10T07:55:18;23.10;99.90
19809;DHT22;48538;32.784;-96.802;2023-05-10T07:57:46;23.10;99.90
19809;DHT22;48538;32.784;-96.802;2023-05-10T08:00:13;23.10;99.90
19809;DHT22;48538;32.784;-96.802;2023-05-10T08:02:42;23.00;99.90
19809;DHT22;48538;32.784;-96.802;2023-05-10T08:05:09;23.10;99.90
19809;DHT22;48538;32.784;-96.802;2023-05-10T08:07:35;23.00;99.90
19809;DHT22;48538;32.784;-96.802;2023-05-10T08:10:03;23.00;99.90
19809;DHT22;48538;32.784;-96.802;2023-05-10T08:12:29;23.00;99.90
19809;DHT22;48538;32.784;-96.802;2023-05-10T08:14:56;23.00;99.90
19809;DHT22;48538;32.784;-96.802;2023-05-10T08:17:22;23.00;99.90
19809;DHT22;48538;32.784;-96.802;2023-05-10T08:19:49;22.90;99.90
19809;DHT22;48538;32.784;-96.802;2023-05-10T08:22:15;22.90;99.90
19809;DHT22;48538;32.784;-96.802;2023-05-10T08:24:42;22.90;99.90
19809;DHT22;48538;32.784;-96.802;2023-05-10T08:27:09;23.00;99.90
19809;DHT22;48538;32.784;-96.802;2023-05-10T08:29:35;23.00;99.90
19809;DHT22;48538;32.784;-96.802;2023-05-10T08:32:01;23.00;99.90
19809;DHT22;48538;32.784;-96.802;2023-05-10T08:34:28;23.00;99.90
19809;DHT22;48538;32.784;-96.802;2023-05-10T08:36:54;22.90;99.90
19809;DHT22;48538;32.784;-96.802;2023-05-10T08:39:20;22.90;99.90
19809;DHT22;48538;32.784;-96.802;2023-05-10T08:41:47;22.90;99.90
19809;DHT22;48538;32.784;-96.802;2023-05-10T08:44:14;22.90;99.90
19809;DHT22;48538;32.784;-96.802;2023-05-10T08:46:44;22.90;99.90
19809;DHT22;48538;32.784;-96.802;2023-05-10T08:49:13;22.90;99.90
19809;DHT22;48538;32.784;-96.802;2023-05-10T08:51:54;22.90;99.90
19809;DHT22;48538;32.784;-96.802;2023-05-10T08:54:21;22.90;99.90
19809;DHT22;48538;32.784;-96.802;2023-05-10T08:56:48;22.80;99.90
19809;DHT22;48538;32.784;-96.802;2023-05-10T08:59:14;22.80;99.90
19809;DHT22;48538;32.784;-96.802;2023-05-10T09:01:43;22.80;99.90
19809;DHT22;48538;32.784;-96.802;2023-05-10T09:04:11;22.70;99.90
19809;DHT22;48538;32.784;-96.802;2023-05-10T09:06:38;22.80;99.90
19809;DHT22;48538;32.784;-96.802;2023-05-10T09:09:04;22.70;99.90
19809;DHT22;48538;32.784;-96.802;2023-05-10T09:11:31;22.70;99.90
19809;DHT22;48538;32.784;-96.802;2023-05-10T09:13:57;22.70;99.90
19809;DHT22;48538;32.784;-96.802;2023-05-10T09:16:23;22.60;99.90
19809;DHT22;48538;32.784;-96.802;2023-05-10T09:18:50;22.60;99.90
19809;DHT22;48538;32.784;-96.802;2023-05-10T09:21:16;22.60;99.90
19809;DHT22;48538;32.784;-96.802;2023-05-10T09:23:47;22.50;99.90
19809;DHT22;48538;32.784;-96.802;2023-05-10T09:26:13;22.50;99.90
19809;DHT22;48538;32.784;-96.802;2023-05-10T09:28:53;22.50;99.90
19809;DHT22;48538;32.784;-96.802;2023-05-10T09:31:20;22.50;99.90
19809;DHT22;48538;32.784;-96.802;2023-05-10T09:33:48;22.50;99.90
19809;DHT22;48538;32.784;-96.802;2023-05-10T09:36:15;22.40;99.90
19809;DHT22;48538;32.784;-96.802;2023-05-10T09:38:48;22.40;99.90
19809;DHT22;48538;32.784;-96.802;2023-05-10T09:41:22;22.40;99.90
19809;DHT22;48538;32.784;-96.802;2023-05-10T09:43:49;22.40;99.90
19809;DHT22;48538;32.784;-96.802;2023-05-10T09:46:16;22.30;99.90
19809;DHT22;48538;32.784;-96.802;2023-05-10T09:48:44;22.30;99.90
19809;DHT22;48538;32.784;-96.802;2023-05-10T09:51:18;22.30;99.90
19809;DHT22;48538;32.784;-96.802;2023-05-10T09:53:44;22.30;99.90
19809;DHT22;48538;32.784;-96.802;2023-05-10T09:56:11;22.20;99.90
19809;DHT22;48538;32.784;-96.802;2023-05-10T09:58:39;22.20;99.90
19809;DHT22;48538;32.784;-96.802;2023-05-10T10:01:11;22.10;99.90
19809;DHT22;48538;32.784;-96.802;2023-05-10T10:03:42;22.10;99.90
19809;DHT22;48538;32.784;-96.802;2023-05-10T10:06:09;22.20;99.90
19809;DHT22;48538;32.784;-96.802;2023-05-10T10:08:36;22.10;99.90
19809;DHT22;48538;32.784;-96.802;2023-05-10T10:11:02;22.10;99.90
19809;DHT22;48538;32.784;-96.802;2023-05-10T10:13:29;22.10;99.90
19809;DHT22;48538;32.784;-96.802;2023-05-10T10:15:56;22.10;99.90
19809;DHT22;48538;32.784;-96.802;2023-05-10T10:18:22;22.10;99.90
19809;DHT22;48538;32.784;-96.802;2023-05-10T10:20:54;22.10;99.90
19809;DHT22;48538;32.784;-96.802;2023-05-10T10:23:21;22.10;99.90
19809;DHT22;48538;32.784;-96.802;2023-05-10T10:25:48;22.00;99.90
19809;DHT22;48538;32.784;-96.802;2023-05-10T10:28:33;22.10;99.90
19809;DHT22;48538;32.784;-96.802;2023-05-10T10:34:10;22.00;99.90
19809;DHT22;48538;32.784;-96.802;2023-05-10T10:36:46;22.00;99.90
19809;DHT22;48538;32.784;-96.802;2023-05-10T10:39:13;22.00;99.90
19809;DHT22;48538;32.784;-96.802;2023-05-10T10:41:51;21.90;99.90
19809;DHT22;48538;32.784;-96.802;2023-05-10T10:49:32;21.90;99.90
19809;DHT22;48538;32.784;-96.802;2023-05-10T10:55:05;21.90;99.90
19809;DHT22;48538;32.784;-96.802;2023-05-10T11:00:31;21.90;99.90
19809;DHT22;48538;32.784;-96.802;2023-05-10T11:03:06;21.90;99.90
19809;DHT22;48538;32.784;-96.802;2023-05-10T11:05:48;21.90;99.90
19809;DHT22;48538;32.784;-96.802;2023-05-10T11:08:21;21.90;99.90
19809;DHT22;48538;32.784;-96.802;2023-05-10T11:13:46;22.00;99.90
19809;DHT22;48538;32.784;-96.802;2023-05-10T11:19:03;22.00;99.90
19809;DHT22;48538;32.784;-96.802;2023-05-10T11:21:30;22.00;99.90
19809;DHT22;48538;32.784;-96.802;2023-05-10T11:23:58;22.00;99.90
19809;DHT22;48538;32.784;-96.802;2023-05-10T11:26:32;22.00;99.90
19809;DHT22;48538;32.784;-96.802;2023-05-10T11:28:59;22.00;99.90
19809;DHT22;48538;32.784;-96.802;2023-05-10T11:31:28;22.00;99.90
19809;DHT22;48538;32.784;-96.802;2023-05-10T11:33:56;22.00;99.90
19809;DHT22;48538;32.784;-96.802;2023-05-10T11:36:35;21.90;99.90
19809;DHT22;48538;32.784;-96.802;2023-05-10T11:39:02;21.90;99.90
19809;DHT22;48538;32.784;-96.802;2023-05-10T11:41:30;21.90;99.90
19809;DHT22;48538;32.784;-96.802;2023-05-10T11:43:57;21.90;99.90
19809;DHT22;48538;32.784;-96.802;2023-05-10T11:46:26;21.90;99.90
19809;DHT22;48538;32.784;-96.802;2023-05-10T11:49:00;21.90;99.90
19809;DHT22;48538;32.784;-96.802;2023-05-10T11:51:28;21.90;99.90
19809;DHT22;48538;32.784;-96.802;2023-05-10T11:53:55;21.90;99.90
19809;DHT22;48538;32.784;-96.802;2023-05-10T11:56:22;21.90;99.90
19809;DHT22;48538;32.784;-96.802;2023-05-10T11:58:56;21.90;99.90
19809;DHT22;48538;32.784;-96.802;2023-05-10T12:01:24;21.90;99.90
19809;DHT22;48538;32.784;-96.802;2023-05-10T12:03:52;21.90;99.90
19809;DHT22;48538;32.784;-96.802;2023-05-10T12:06:20;21.90;99.90
19809;DHT22;48538;32.784;-96.802;2023-05-10T12:08:48;22.00;99.90
19809;DHT22;48538;32.784;-96.802;2023-05-10T12:11:18;22.00;99.90
19809;DHT22;48538;32.784;-96.802;2023-05-10T12:13:45;22.00;99.90
19809;DHT22;48538;32.784;-96.802;2023-05-10T12:16:28;22.00;99.90
19809;DHT22;48538;32.784;-96.802;2023-05-10T12:18:59;22.00;99.90
19809;DHT22;48538;32.784;-96.802;2023-05-10T12:21:28;22.00;99.90
19809;DHT22;48538;32.784;-96.802;2023-05-10T12:24:02;22.10;99.90
19809;DHT22;48538;32.784;-96.802;2023-05-10T12:26:30;22.10;99.90
19809;DHT22;48538;32.784;-96.802;2023-05-10T12:29:16;22.10;99.90
19809;DHT22;48538;32.784;-96.802;2023-05-10T12:31:58;22.20;99.90
19809;DHT22;48538;32.784;-96.802;2023-05-10T12:34:32;22.20;99.90
19809;DHT22;48538;32.784;-96.802;2023-05-10T12:36:59;22.20;99.90
19809;DHT22;48538;32.784;-96.802;2023-05-10T12:39:25;22.20;99.90
19809;DHT22;48538;32.784;-96.802;2023-05-10T12:41:52;22.20;99.90
19809;DHT22;48538;32.784;-96.802;2023-05-10T12:44:18;22.20;99.90
19809;DHT22;48538;32.784;-96.802;2023-05-10T12:46:45;22.20;99.90
19809;DHT22;48538;32.784;-96.802;2023-05-10T12:49:11;22.20;99.90
19809;DHT22;48538;32.784;-96.802;2023-05-10T12:51:37;22.20;99.90
19809;DHT22;48538;32.784;-96.802;2023-05-10T12:54:04;22.20;99.90
19809;DHT22;48538;32.784;-96.802;2023-05-10T12:56:30;22.20;99.90
19809;DHT22;48538;32.784;-96.802;2023-05-10T12:58:56;22.30;99.90
19809;DHT22;48538;32.784;-96.802;2023-05-10T13:01:23;22.40;99.90
19809;DHT22;48538;32.784;-96.802;2023-05-10T13:03:49;22.40;99.90
19809;DHT22;48538;32.784;-96.802;2023-05-10T13:06:16;22.30;99.90
19809;DHT22;48538;32.784;-96.802;2023-05-10T13:08:42;22.40;99.90
19809;DHT22;48538;32.784;-96.802;2023-05-10T13:11:08;22.50;99.90
19809;DHT22;48538;32.784;-96.802;2023-05-10T13:13:35;22.50;99.90
19809;DHT22;48538;32.784;-96.802;2023-05-10T13:16:01;22.60;99.90
19809;DHT22;48538;32.784;-96.802;2023-05-10T13:18:27;22.70;99.90
19809;DHT22;48538;32.784;-96.802;2023-05-10T13:20:54;22.70;99.90
19809;DHT22;48538;32.784;-96.802;2023-05-10T13:23:21;22.70;99.90
19809;DHT22;48538;32.784;-96.802;2023-05-10T13:25:47;22.80;99.90
19809;DHT22;48538;32.784;-96.802;2023-05-10T13:28:14;22.80;99.90
19809;DHT22;48538;32.784;-96.802;2023-05-10T13:30:40;22.80;99.90
19809;DHT22;48538;32.784;-96.802;2023-05-10T13:33:06;22.90;99.90
19809;DHT22;48538;32.784;-96.802;2023-05-10T13:35:32;22.90;99.90
19809;DHT22;48538;32.784;-96.802;2023-05-10T13:37:59;23.00;99.90
19809;DHT22;48538;32.784;-96.802;2023-05-10T13:40:25;23.00;99.90
19809;DHT22;48538;32.784;-96.802;2023-05-10T13:42:51;22.90;99.90
19809;DHT22;48538;32.784;-96.802;2023-05-10T13:45:18;23.00;99.90
19809;DHT22;48538;32.784;-96.802;2023-05-10T13:47:45;22.90;99.90
19809;DHT22;48538;32.784;-96.802;2023-05-10T13:50:11;22.90;99.90
19809;DHT22;48538;32.784;-96.802;2023-05-10T13:52:37;22.80;99.90
19809;DHT22;48538;32.784;-96.802;2023-05-10T13:55:04;22.80;99.90
19809;DHT22;48538;32.784;-96.802;2023-05-10T13:57:30;22.80;99.90
19809;DHT22;48538;32.784;-96.802;2023-05-10T13:59:57;22.80;99.90
19809;DHT22;48538;32.784;-96.802;2023-05-10T14:02:24;22.80;99.90
19809;DHT22;48538;32.784;-96.802;2023-05-10T14:04:51;22.80;99.90
19809;DHT22;48538;32.784;-96.802;2023-05-10T14:07:17;22.80;99.90
19809;DHT22;48538;32.784;-96.802;2023-05-10T14:09:44;22.80;99.90
19809;DHT22;48538;32.784;-96.802;2023-05-10T14:12:10;22.80;99.90
19809;DHT22;48538;32.784;-96.802;2023-05-10T14:14:37;22.70;99.90
19809;DHT22;48538;32.784;-96.802;2023-05-10T14:17:03;22.70;99.90
19809;DHT22;48538;32.784;-96.802;2023-05-10T14:19:29;22.80;99.90
19809;DHT22;48538;32.784;-96.802;2023-05-10T14:21:58;22.90;99.90
19809;DHT22;48538;32.784;-96.802;2023-05-10T14:24:24;22.90;99.90
19809;DHT22;48538;32.784;-96.802;2023-05-10T14:26:51;22.90;99.90
19809;DHT22;48538;32.784;-96.802;2023-05-10T14:29:20;23.00;99.90
19809;DHT22;48538;32.784;-96.802;2023-05-10T14:31:46;23.10;99.90
19809;DHT22;48538;32.784;-96.802;2023-05-10T14:34:12;23.10;99.90
19809;DHT22;48538;32.784;-96.802;2023-05-10T14:36:39;23.10;99.90
19809;DHT22;48538;32.784;-96.802;2023-05-10T14:39:05;23.10;99.90
19809;DHT22;48538;32.784;-96.802;2023-05-10T14:41:32;23.10;99.90
19809;DHT22;48538;32.784;-96.802;2023-05-10T14:43:58;23.20;99.90
19809;DHT22;48538;32.784;-96.802;2023-05-10T14:46:25;23.20;99.90
19809;DHT22;48538;32.784;-96.802;2023-05-10T14:48:51;23.20;99.90
19809;DHT22;48538;32.784;-96.802;2023-05-10T14:51:17;23.30;99.90
19809;DHT22;48538;32.784;-96.802;2023-05-10T14:53:48;23.30;99.90
19809;DHT22;48538;32.784;-96.802;2023-05-10T14:56:15;23.30;99.90
19809;DHT22;48538;32.784;-96.802;2023-05-10T14:58:41;23.40;99.90
19809;DHT22;48538;32.784;-96.802;2023-05-10T15:01:07;23.30;99.90
19809;DHT22;48538;32.784;-96.802;2023-05-10T15:03:34;23.30;99.90
19809;DHT22;48538;32.784;-96.802;2023-05-10T15:06:00;23.40;99.90
19809;DHT22;48538;32.784;-96.802;2023-05-10T15:08:27;23.40;99.90
19809;DHT22;48538;32.784;-96.802;2023-05-10T15:10:53;23.40;99.90
19809;DHT22;48538;32.784;-96.802;2023-05-10T15:13:21;23.50;99.90
19809;DHT22;48538;32.784;-96.802;2023-05-10T15:15:48;23.50;99.90
19809;DHT22;48538;32.784;-96.802;2023-05-10T15:18:14;23.50;99.90
19809;DHT22;48538;32.784;-96.802;2023-05-10T15:20:40;23.50;99.90
19809;DHT22;48538;32.784;-96.802;2023-05-10T15:23:07;23.50;99.90
19809;DHT22;48538;32.784;-96.802;2023-05-10T15:25:33;23.50;99.90
19809;DHT22;48538;32.784;-96.802;2023-05-10T15:28:04;23.50;99.90
19809;DHT22;48538;32.784;-96.802;2023-05-10T15:30:30;23.50;99.90
19809;DHT22;48538;32.784;-96.802;2023-05-10T15:32:56;23.60;99.90
19809;DHT22;48538;32.784;-96.802;2023-05-10T15:35:23;23.70;99.90
19809;DHT22;48538;32.784;-96.802;2023-05-10T15:37:49;23.70;99.90
19809;DHT22;48538;32.784;-96.802;2023-05-10T15:40:16;23.80;99.90